createdAt,value
2023-05-12T00:02:55.192Z,99956.03
2023-05-12T00:07:57.918Z,99840.31
2023-05-12T00:13:00.533Z,99892.75
2023-05-12T00:18:03.070Z,99892.69
2023-05-12T00:23:05.911Z,99805.88
2023-05-12T00:28:11.278Z,99890.84
2023-05-12T00:33:13.979Z,99952.94
2023-05-12T00:38:16.667Z,99924.91
2023-05-12T00:43:19.441Z,99917.81
2023-05-12T00:48:22.162Z,99884.50
2023-05-12T00:53:27.771Z,99940.56
2023-05-12T00:58:35.003Z,99931.81
2023-05-12T01:03:37.734Z,99908.97
2023-05-12T01:08:42.728Z,99727.63
2023-05-12T01:13:45.581Z,99875.63
2023-05-12T01:18:51.410Z,99913.34
2023-05-12T01:23:59.105Z,99908.91
2023-05-12T01:29:05.071Z,99731.91
2023-05-12T01:34:07.561Z,99923.84
2023-05-12T01:39:10.197Z,99801.03
2023-05-12T01:44:12.600Z,99786.22
2023-05-12T01:49:15.608Z,99923.78
2023-05-12T01:54:18.446Z,99910.47
2023-05-12T01:59:21.235Z,99885.84
2023-05-12T02:04:24.122Z,99801.75
2023-05-12T02:09:28.005Z,99649.19
2023-05-12T02:14:35.108Z,99870.53
2023-05-12T02:19:37.757Z,99801.63
2023-05-12T02:24:41.915Z,99864.63
2023-05-12T02:29:44.547Z,99546.78
2023-05-12T02:34:47.902Z,99873.28
2023-05-12T02:39:50.829Z,99837.38
2023-05-12T02:44:54.456Z,99904.34
2023-05-12T02:49:57.412Z,99940.78
2023-05-12T02:55:00.208Z,99948.03
2023-05-12T03:00:06.382Z,99947.25
2023-05-12T03:05:11.610Z,99523.41
2023-05-12T03:10:14.247Z,99425.97
2023-05-12T03:15:16.842Z,99752.63
2023-05-12T03:20:20.270Z,99809.78
2023-05-12T03:25:23.037Z,99859.78
2023-05-12T03:30:25.559Z,99892.31
2023-05-12T03:35:28.163Z,99869.59
2023-05-12T03:40:31.138Z,99917.03
2023-05-12T03:45:33.931Z,99944.25
2023-05-12T03:50:36.357Z,99821.63
2023-05-12T03:55:38.982Z,99946.16
2023-05-12T04:00:41.375Z,99954.03
2023-05-12T04:05:43.880Z,99938.47
2023-05-12T04:10:46.232Z,99928.13
2023-05-12T04:15:49.739Z,99915.03
2023-05-12T04:20:52.220Z,99860.91
2023-05-12T04:25:54.581Z,99902.31
2023-05-12T04:30:57.251Z,99911.28
2023-05-12T04:36:00.503Z,99879.19
2023-05-12T04:41:03.618Z,99894.28
2023-05-12T04:46:06.548Z,99936.41
2023-05-12T04:51:09.633Z,99918.16
2023-05-12T04:56:12.814Z,99875.38
2023-05-12T05:01:15.370Z,99843.06
2023-05-12T05:06:18.560Z,99891.09
2023-05-12T05:11:22.695Z,99925.84
2023-05-12T05:16:25.708Z,99919.56
2023-05-12T05:21:28.534Z,99825.03
2023-05-12T05:26:32.301Z,99919.75
2023-05-12T05:31:35.868Z,99917.66
2023-05-12T05:36:38.493Z,99897.31
2023-05-12T05:41:41.100Z,99881.41
2023-05-12T05:46:44.495Z,99848.75
2023-05-12T05:51:47.450Z,99871.09
2023-05-12T05:56:51.566Z,99897.63
2023-05-12T06:01:54.115Z,99853.69
2023-05-12T06:06:56.737Z,99814.91
2023-05-12T06:11:59.207Z,99883.41
2023-05-12T06:17:01.632Z,99862.28
2023-05-12T06:22:04.263Z,99811.38
2023-05-12T06:27:07.048Z,99880.44
2023-05-12T06:32:09.797Z,99846.00
2023-05-12T06:37:12.375Z,99830.91
2023-05-12T06:42:16.336Z,99886.94
2023-05-12T06:47:19.735Z,99891.56
2023-05-12T06:52:24.302Z,99821.53
2023-05-12T06:57:26.800Z,99820.97
2023-05-12T07:02:30.159Z,99866.56
2023-05-12T07:07:33.130Z,99853.09
2023-05-12T07:12:35.661Z,99840.59
2023-05-12T07:17:38.718Z,99868.53
2023-05-12T07:22:41.329Z,99878.28
2023-05-12T07:27:43.862Z,99879.59
2023-05-12T07:32:46.866Z,99853.84
2023-05-12T07:37:49.233Z,99840.41
2023-05-12T07:42:54.630Z,99870.97
2023-05-12T07:47:57.054Z,99777.28
2023-05-12T07:52:59.516Z,99840.84
2023-05-12T07:58:02.879Z,99877.59
2023-05-12T08:03:07.052Z,99868.03
2023-05-12T08:08:16.950Z,99810.81
2023-05-12T08:13:19.869Z,99871.97
2023-05-12T08:18:22.363Z,99874.31
2023-05-12T08:23:24.808Z,99863.69
2023-05-12T08:28:27.474Z,99776.13
2023-05-12T08:33:29.912Z,99847.81
2023-05-12T08:38:33.006Z,99847.06
2023-05-12T08:43:44.388Z,99828.44
2023-05-12T08:48:49.949Z,99826.63
2023-05-12T08:53:55.165Z,99810.47
2023-05-12T08:58:57.811Z,99789.59
2023-05-12T09:04:00.495Z,99825.34
2023-05-12T09:09:03.887Z,99793.25
2023-05-12T09:14:12.132Z,99793.69
2023-05-12T09:19:19.827Z,99816.56
2023-05-12T09:24:34.427Z,99817.13
2023-05-12T09:29:42.475Z,99820.69
2023-05-12T09:34:51.931Z,99846.34
2023-05-12T09:40:07.193Z,99850.53
2023-05-12T09:45:11.326Z,99823.94
2023-05-12T09:50:13.812Z,99808.19
2023-05-12T09:55:16.304Z,99755.94
2023-05-12T10:00:34.493Z,99777.69
2023-05-12T10:05:51.996Z,99806.91
2023-05-12T10:10:57.145Z,99806.91
2023-05-12T10:16:00.072Z,99809.88
2023-05-12T10:21:03.306Z,99828.09
2023-05-12T10:26:06.976Z,99833.59
2023-05-12T10:31:10.666Z,99814.44
2023-05-12T10:36:20.165Z,99820.13
2023-05-12T10:41:33.253Z,99788.84
2023-05-12T10:46:35.753Z,99773.63
2023-05-12T10:51:38.213Z,99798.84
2023-05-12T10:56:40.878Z,99794.53
2023-05-12T11:02:03.625Z,99801.88
2023-05-12T11:07:09.991Z,99780.16
2023-05-12T11:12:14.283Z,99762.31
2023-05-12T11:17:16.783Z,99778.03
2023-05-12T11:22:21.858Z,99785.72
2023-05-12T11:27:24.553Z,99783.34
2023-05-12T11:32:28.988Z,99755.00
2023-05-12T11:37:37.377Z,99798.06
2023-05-12T11:42:42.151Z,99786.09
2023-05-12T11:47:44.666Z,99769.13
2023-05-12T11:52:47.222Z,99748.06
2023-05-12T11:58:06.836Z,99759.97
2023-05-12T12:03:14.453Z,99771.75
2023-05-12T12:08:17.238Z,99742.06
2023-05-12T12:13:22.000Z,99728.09
2023-05-12T12:18:24.546Z,99742.56
2023-05-12T12:23:27.163Z,99757.06
2023-05-12T12:28:29.547Z,99729.13
2023-05-12T12:33:32.001Z,99707.56
2023-05-12T12:38:34.432Z,99718.25
2023-05-12T12:43:36.947Z,99747.31
2023-05-12T12:48:39.405Z,99698.88
2023-05-12T12:53:44.175Z,99716.47
2023-05-12T12:58:46.881Z,99734.16
2023-05-12T13:03:49.416Z,99712.13
2023-05-12T13:08:52.232Z,99747.00
2023-05-12T13:13:56.085Z,99617.69
2023-05-12T13:18:58.496Z,99707.22
2023-05-12T13:24:01.087Z,99737.06
2023-05-12T13:29:04.640Z,99702.09
2023-05-12T13:34:07.270Z,99701.25
2023-05-12T13:39:10.594Z,99710.88
2023-05-12T13:44:13.018Z,99713.75
2023-05-12T13:49:15.670Z,99695.53
2023-05-12T13:54:18.086Z,99706.63
2023-05-12T13:59:20.814Z,99675.91
2023-05-12T14:04:23.130Z,99713.25
2023-05-12T14:09:26.064Z,99685.47
2023-05-12T14:14:28.520Z,99600.06
2023-05-12T14:19:31.106Z,99682.28
2023-05-12T14:24:33.599Z,99630.31
2023-05-12T14:29:36.214Z,99703.31
2023-05-12T14:34:38.748Z,99658.47
2023-05-12T14:39:41.535Z,99681.50
2023-05-12T14:44:44.102Z,99694.56
2023-05-12T14:49:46.715Z,99642.16
2023-05-12T14:54:49.177Z,99640.84
2023-05-12T14:59:54.712Z,99679.03
2023-05-12T15:04:57.196Z,99592.22
2023-05-12T15:09:59.621Z,99689.78
2023-05-12T15:15:04.370Z,99657.44
2023-05-12T15:20:10.862Z,99674.16
2023-05-12T15:25:13.282Z,99648.69
2023-05-12T15:30:16.242Z,99682.69
2023-05-12T15:35:19.467Z,99634.53
2023-05-12T15:40:22.133Z,99685.19
2023-05-12T15:45:24.582Z,99698.41
2023-05-12T15:50:26.937Z,99673.53
2023-05-12T15:55:30.304Z,99679.28
2023-05-12T16:00:32.853Z,99693.91
2023-05-12T16:05:38.217Z,99685.75
2023-05-12T16:10:40.809Z,99646.91
2023-05-12T16:15:43.393Z,99677.34
2023-05-12T16:20:47.868Z,99607.13
2023-05-12T16:25:51.425Z,99707.56
2023-05-12T16:30:54.113Z,99695.00
2023-05-12T16:35:56.641Z,99692.00
2023-05-12T16:41:00.426Z,99687.22
2023-05-12T16:46:04.518Z,99681.66
2023-05-12T16:51:10.050Z,99685.66
2023-05-12T16:56:12.676Z,99708.50
2023-05-12T17:01:15.651Z,99710.41
2023-05-12T17:06:18.375Z,99710.16
2023-05-12T17:11:20.925Z,99683.91
2023-05-12T17:16:23.590Z,99725.06
2023-05-12T17:21:26.128Z,99725.56
2023-05-12T17:26:29.651Z,99728.50
2023-05-12T17:31:35.145Z,99748.13
2023-05-12T17:36:37.769Z,99731.34
2023-05-12T17:41:40.312Z,99721.25
2023-05-12T17:46:42.788Z,99728.00
2023-05-12T17:51:45.462Z,99744.91
2023-05-12T17:56:49.044Z,99696.59
2023-05-12T18:01:52.324Z,99711.91
2023-05-12T18:06:55.403Z,99706.22
2023-05-12T18:12:00.984Z,99757.84
2023-05-12T18:17:03.568Z,99686.34
2023-05-12T18:22:08.461Z,99723.19
2023-05-12T18:27:11.161Z,99674.84
2023-05-12T18:32:15.248Z,99769.16
2023-05-12T18:37:17.953Z,99706.91
2023-05-12T18:42:21.097Z,99729.88
2023-05-12T18:47:23.673Z,99741.47
2023-05-12T18:52:26.105Z,99767.75
2023-05-12T18:57:28.653Z,99707.09
2023-05-12T19:02:31.657Z,99745.66
2023-05-12T19:07:34.346Z,99681.66
2023-05-12T19:12:36.924Z,99687.16
2023-05-12T19:17:41.355Z,99758.63
2023-05-12T19:22:44.434Z,99696.34
2023-05-12T19:27:46.968Z,99779.94
2023-05-12T19:32:50.679Z,99772.22
2023-05-12T19:37:55.627Z,99694.09
2023-05-12T19:42:58.258Z,99689.03
2023-05-12T19:48:00.899Z,99758.84
2023-05-12T19:53:03.621Z,99753.75
2023-05-12T19:58:06.103Z,99766.03
2023-05-12T20:03:09.168Z,99776.66
2023-05-12T20:08:11.936Z,99774.13
2023-05-12T20:13:14.455Z,99745.53
2023-05-12T20:18:17.349Z,99739.47
2023-05-12T20:23:21.498Z,99731.78
2023-05-12T20:28:24.445Z,99752.88
2023-05-12T20:33:26.897Z,99772.97
2023-05-12T20:38:30.475Z,99775.69
2023-05-12T20:43:33.586Z,99708.63
2023-05-12T20:48:35.948Z,99641.59
2023-05-12T20:53:39.011Z,99714.03
2023-05-12T20:58:41.793Z,99773.41
2023-05-12T21:03:44.359Z,99736.03
2023-05-12T21:08:47.591Z,99779.63
2023-05-12T21:13:50.002Z,99730.88
2023-05-12T21:18:52.577Z,99750.16
2023-05-12T21:23:55.069Z,99738.84
2023-05-12T21:28:58.054Z,99761.59
2023-05-12T21:34:00.399Z,99654.31
2023-05-12T21:39:03.027Z,99774.69
2023-05-12T21:44:10.472Z,99763.41
2023-05-12T21:49:14.654Z,99759.06
2023-05-12T21:54:17.150Z,99758.22
2023-05-12T21:59:19.655Z,99779.19
2023-05-12T22:04:22.169Z,99658.81
2023-05-12T22:09:24.601Z,99737.31
2023-05-12T22:14:27.273Z,99782.69
2023-05-12T22:19:29.701Z,99742.53
2023-05-12T22:24:32.308Z,99750.44
2023-05-12T22:29:34.930Z,99763.53
2023-05-12T22:34:37.597Z,99781.00
2023-05-12T22:39:40.086Z,99644.84
2023-05-12T22:44:42.597Z,99711.19
2023-05-12T22:49:45.154Z,99617.81
2023-05-12T22:54:47.546Z,99795.88
2023-05-12T22:59:50.218Z,99636.16
2023-05-12T23:04:52.586Z,99774.94
2023-05-12T23:09:55.062Z,99764.44
2023-05-12T23:14:57.486Z,99664.06
2023-05-12T23:20:00.095Z,99802.00
2023-05-12T23:25:02.594Z,99802.88
2023-05-12T23:30:07.628Z,99759.22
2023-05-12T23:35:10.473Z,99766.19
2023-05-12T23:40:13.077Z,99757.41
2023-05-12T23:45:16.277Z,99732.06
2023-05-12T23:50:18.860Z,99724.22
2023-05-12T23:55:22.125Z,99720.72
